sensor_id;sensor_type;location;lat;lon;timestamp;temperature;humidity
61386;DHT22;47256;18.904;-99.054;2024-03-08T00:02:01;31.40;45.10
61386;DHT22;47256;18.904;-99.054;2024-03-08T00:04:31;31.40;44.40
61386;DHT22;47256;18.904;-99.054;2024-03-08T00:06:58;31.50;44.80
61386;DHT22;47256;18.904;-99.054;2024-03-08T00:09:29;31.40;44.00
61386;DHT22;47256;18.904;-99.054;2024-03-08T00:12:00;31.40;44.40
61386;DHT22;47256;18.904;-99.054;2024-03-08T00:14:27;31.30;44.90
61386;DHT22;47256;18.904;-99.054;2024-03-08T00:16:54;31.30;45.50
61386;DHT22;47256;18.904;-99.054;2024-03-08T00:19:22;31.20;44.80
61386;DHT22;47256;18.904;-99.054;2024-03-08T00:21:51;31.20;45.20
61386;DHT22;47256;18.904;-99.054;2024-03-08T00:24:25;31.20;45.30
61386;DHT22;47256;18.904;-99.054;2024-03-08T00:26:55;31.10;45.20
61386;DHT22;47256;18.904;-99.054;2024-03-08T00:29:24;31.00;45.80
61386;DHT22;47256;18.904;-99.054;2024-03-08T00:31:55;30.90;45.30
61386;DHT22;47256;18.904;-99.054;2024-03-08T00:34:23;30.90;45.00
61386;DHT22;47256;18.904;-99.054;2024-03-08T00:36:53;30.80;45.60
61386;DHT22;47256;18.904;-99.054;2024-03-08T00:39:20;30.70;45.70
61386;DHT22;47256;18.904;-99.054;2024-03-08T00:41:50;30.70;45.50
61386;DHT22;47256;18.904;-99.054;2024-03-08T00:44:19;30.70;47.10
61386;DHT22;47256;18.904;-99.054;2024-03-08T00:46:47;30.50;46.60
61386;DHT22;47256;18.904;-99.054;2024-03-08T00:49:15;30.40;45.80
61386;DHT22;47256;18.904;-99.054;2024-03-08T00:51:47;30.40;46.80
61386;DHT22;47256;18.904;-99.054;2024-03-08T00:54:17;30.30;46.80
61386;DHT22;47256;18.904;-99.054;2024-03-08T00:56:45;30.20;45.70
61386;DHT22;47256;18.904;-99.054;2024-03-08T00:59:18;30.20;44.70
61386;DHT22;47256;18.904;-99.054;2024-03-08T01:01:49;30.10;43.80
61386;DHT22;47256;18.904;-99.054;2024-03-08T01:04:23;30.10;42.70
61386;DHT22;47256;18.904;-99.054;2024-03-08T01:07:01;30.00;42.80
61386;DHT22;47256;18.904;-99.054;2024-03-08T01:09:31;30.00;41.80
61386;DHT22;47256;18.904;-99.054;2024-03-08T01:11:59;29.90;41.10
61386;DHT22;47256;18.904;-99.054;2024-03-08T01:14:26;29.90;40.50
61386;DHT22;47256;18.904;-99.054;2024-03-08T01:16:58;29.90;41.20
61386;DHT22;47256;18.904;-99.054;2024-03-08T01:19:28;29.90;41.10
61386;DHT22;47256;18.904;-99.054;2024-03-08T01:21:56;29.90;41.80
61386;DHT22;47256;18.904;-99.054;2024-03-08T01:24:24;29.80;42.30
61386;DHT22;47256;18.904;-99.054;2024-03-08T01:26:55;29.80;43.10
61386;DHT22;47256;18.904;-99.054;2024-03-08T01:29:26;29.80;43.70
61386;DHT22;47256;18.904;-99.054;2024-03-08T01:31:58;29.70;44.00
61386;DHT22;47256;18.904;-99.054;2024-03-08T01:34:28;29.70;44.00
61386;DHT22;47256;18.904;-99.054;2024-03-08T01:36:56;29.70;44.20
61386;DHT22;47256;18.904;-99.054;2024-03-08T01:39:24;29.70;44.40
61386;DHT22;47256;18.904;-99.054;2024-03-08T01:41:52;29.60;44.50
61386;DHT22;47256;18.904;-99.054;2024-03-08T01:44:21;29.60;44.70
61386;DHT22;47256;18.904;-99.054;2024-03-08T01:46:50;29.60;44.80
61386;DHT22;47256;18.904;-99.054;2024-03-08T01:49:22;29.60;45.00
61386;DHT22;47256;18.904;-99.054;2024-03-08T01:51:55;29.60;45.10
61386;DHT22;47256;18.904;-99.054;2024-03-08T01:54:27;29.60;45.40
61386;DHT22;47256;18.904;-99.054;2024-03-08T01:56:54;29.50;45.80
61386;DHT22;47256;18.904;-99.054;2024-03-08T01:59:23;29.50;46.40
61386;DHT22;47256;18.904;-99.054;2024-03-08T02:02:02;29.30;47.30
61386;DHT22;47256;18.904;-99.054;2024-03-08T02:04:31;29.20;48.20
61386;DHT22;47256;18.904;-99.054;2024-03-08T02:07:05;29.10;48.40
61386;DHT22;47256;18.904;-99.054;2024-03-08T02:09:33;29.00;48.90
61386;DHT22;47256;18.904;-99.054;2024-03-08T02:12:00;28.80;49.10
61386;DHT22;47256;18.904;-99.054;2024-03-08T02:14:32;28.70;49.80
61386;DHT22;47256;18.904;-99.054;2024-03-08T02:17:05;28.70;49.90
61386;DHT22;47256;18.904;-99.054;2024-03-08T02:19:38;28.60;49.90
61386;DHT22;47256;18.904;-99.054;2024-03-08T02:22:09;28.40;49.90
61386;DHT22;47256;18.904;-99.054;2024-03-08T02:24:39;28.30;49.90
61386;DHT22;47256;18.904;-99.054;2024-03-08T02:27:08;28.30;50.20
61386;DHT22;47256;18.904;-99.054;2024-03-08T02:29:41;28.30;52.40
61386;DHT22;47256;18.904;-99.054;2024-03-08T02:32:15;28.20;51.60
61386;DHT22;47256;18.904;-99.054;2024-03-08T02:34:42;28.20;52.00
61386;DHT22;47256;18.904;-99.054;2024-03-08T02:37:11;28.10;51.80
61386;DHT22;47256;18.904;-99.054;2024-03-08T02:39:44;28.00;50.80
61386;DHT22;47256;18.904;-99.054;2024-03-08T02:42:13;27.90;49.60
61386;DHT22;47256;18.904;-99.054;2024-03-08T02:44:43;27.90;51.20
61386;DHT22;47256;18.904;-99.054;2024-03-08T02:47:11;27.90;51.30
61386;DHT22;47256;18.904;-99.054;2024-03-08T02:49:46;27.80;54.00
61386;DHT22;47256;18.904;-99.054;2024-03-08T02:52:14;27.80;52.00
61386;DHT22;47256;18.904;-99.054;2024-03-08T02:54:45;27.80;51.10
61386;DHT22;47256;18.904;-99.054;2024-03-08T02:57:13;27.70;50.80
61386;DHT22;47256;18.904;-99.054;2024-03-08T02:59:42;27.70;51.30
61386;DHT22;47256;18.904;-99.054;2024-03-08T03:02:13;27.60;51.50
61386;DHT22;47256;18.904;-99.054;2024-03-08T03:04:43;27.50;51.30
61386;DHT22;47256;18.904;-99.054;2024-03-08T03:07:14;27.50;50.90
61386;DHT22;47256;18.904;-99.054;2024-03-08T03:09:41;27.50;50.80
61386;DHT22;47256;18.904;-99.054;2024-03-08T03:12:08;27.40;52.60
61386;DHT22;47256;18.904;-99.054;2024-03-08T03:14:38;27.30;53.90
61386;DHT22;47256;18.904;-99.054;2024-03-08T03:17:08;27.20;53.30
61386;DHT22;47256;18.904;-99.054;2024-03-08T03:19:37;27.10;51.60
61386;DHT22;47256;18.904;-99.054;2024-03-08T03:22:07;27.00;51.20
61386;DHT22;47256;18.904;-99.054;2024-03-08T03:24:36;27.10;52.10
61386;DHT22;47256;18.904;-99.054;2024-03-08T03:27:05;27.10;51.70
61386;DHT22;47256;18.904;-99.054;2024-03-08T03:29:41;27.10;51.80
61386;DHT22;47256;18.904;-99.054;2024-03-08T03:32:14;27.00;52.40
61386;DHT22;47256;18.904;-99.054;2024-03-08T03:34:44;26.90;51.70
61386;DHT22;47256;18.904;-99.054;2024-03-08T03:37:14;26.80;52.00
61386;DHT22;47256;18.904;-99.054;2024-03-08T03:39:41;26.70;52.90
61386;DHT22;47256;18.904;-99.054;2024-03-08T03:42:20;26.60;52.60
61386;DHT22;47256;18.904;-99.054;2024-03-08T03:44:48;26.50;53.20
61386;DHT22;47256;18.904;-99.054;2024-03-08T03:47:16;26.50;53.40
61386;DHT22;47256;18.904;-99.054;2024-03-08T03:49:43;26.50;54.00
61386;DHT22;47256;18.904;-99.054;2024-03-08T03:52:14;26.50;54.80
61386;DHT22;47256;18.904;-99.054;2024-03-08T03:54:45;26.40;53.50
61386;DHT22;47256;18.904;-99.054;2024-03-08T03:57:12;26.40;53.50
61386;DHT22;47256;18.904;-99.054;2024-03-08T03:59:41;26.30;54.50
61386;DHT22;47256;18.904;-99.054;2024-03-08T04:02:11;26.20;54.00
61386;DHT22;47256;18.904;-99.054;2024-03-08T04:04:39;26.20;54.10
61386;DHT22;47256;18.904;-99.054;2024-03-08T04:07:06;26.20;53.40
61386;DHT22;47256;18.904;-99.054;2024-03-08T04:09:36;26.20;55.80
61386;DHT22;47256;18.904;-99.054;2024-03-08T04:12:09;26.10;53.50
61386;DHT22;47256;18.904;-99.054;2024-03-08T04:14:42;26.10;53.20
61386;DHT22;47256;18.904;-99.054;2024-03-08T04:17:10;26.00;53.50
61386;DHT22;47256;18.904;-99.054;2024-03-08T04:19:42;26.00;55.20
61386;DHT22;47256;18.904;-99.054;2024-03-08T04:22:14;25.90;55.40
61386;DHT22;47256;18.904;-99.054;2024-03-08T04:24:45;25.90;54.60
61386;DHT22;47256;18.904;-99.054;2024-03-08T04:27:13;25.80;54.90
61386;DHT22;47256;18.904;-99.054;2024-03-08T04:29:51;25.80;55.30
61386;DHT22;47256;18.904;-99.054;2024-03-08T04:32:22;25.70;56.70
61386;DHT22;47256;18.904;-99.054;2024-03-08T04:34:55;25.60;55.60
61386;DHT22;47256;18.904;-99.054;2024-03-08T04:37:23;25.70;55.30
61386;DHT22;47256;18.904;-99.054;2024-03-08T04:39:50;25.60;56.50
61386;DHT22;47256;18.904;-99.054;2024-03-08T04:42:23;25.50;56.70
61386;DHT22;47256;18.904;-99.054;2024-03-08T04:44:52;25.50;56.30
61386;DHT22;47256;18.904;-99.054;2024-03-08T04:47:23;25.50;56.10
61386;DHT22;47256;18.904;-99.054;2024-03-08T04:49:59;25.50;56.30
61386;DHT22;47256;18.904;-99.054;2024-03-08T04:52:27;25.40;57.80
61386;DHT22;47256;18.904;-99.054;2024-03-08T04:54:55;25.20;58.00
61386;DHT22;47256;18.904;-99.054;2024-03-08T04:57:25;25.20;56.70
61386;DHT22;47256;18.904;-99.054;2024-03-08T04:59:53;25.20;56.50
61386;DHT22;47256;18.904;-99.054;2024-03-08T05:02:21;25.20;57.40
61386;DHT22;47256;18.904;-99.054;2024-03-08T05:04:53;25.20;57.30
61386;DHT22;47256;18.904;-99.054;2024-03-08T05:07:23;25.20;57.30
61386;DHT22;47256;18.904;-99.054;2024-03-08T05:09:52;25.10;57.90
61386;DHT22;47256;18.904;-99.054;2024-03-08T05:12:25;25.10;58.40
61386;DHT22;47256;18.904;-99.054;2024-03-08T05:14:53;25.10;58.40
61386;DHT22;47256;18.904;-99.054;2024-03-08T05:17:23;25.00;58.00
61386;DHT22;47256;18.904;-99.054;2024-03-08T05:19:51;25.00;57.80
61386;DHT22;47256;18.904;-99.054;2024-03-08T05:22:19;24.90;57.60
61386;DHT22;47256;18.904;-99.054;2024-03-08T05:24:52;24.80;56.90
61386;DHT22;47256;18.904;-99.054;2024-03-08T05:27:26;24.70;57.60
61386;DHT22;47256;18.904;-99.054;2024-03-08T05:29:55;24.60;58.10
61386;DHT22;47256;18.904;-99.054;2024-03-08T05:32:25;24.50;57.70
61386;DHT22;47256;18.904;-99.054;2024-03-08T05:34:53;24.50;57.10
61386;DHT22;47256;18.904;-99.054;2024-03-08T05:37:24;24.30;57.80
61386;DHT22;47256;18.904;-99.054;2024-03-08T05:39:55;24.20;58.80
61386;DHT22;47256;18.904;-99.054;2024-03-08T05:42:45;24.20;58.40
61386;DHT22;47256;18.904;-99.054;2024-03-08T05:45:16;24.10;57.70
61386;DHT22;47256;18.904;-99.054;2024-03-08T05:47:43;24.10;58.10
61386;DHT22;47256;18.904;-99.054;2024-03-08T05:50:10;24.00;60.10
61386;DHT22;47256;18.904;-99.054;2024-03-08T05:52:39;23.90;59.80
61386;DHT22;47256;18.904;-99.054;2024-03-08T05:55:06;23.90;58.90
61386;DHT22;47256;18.904;-99.054;2024-03-08T05:57:36;24.00;58.50
61386;DHT22;47256;18.904;-99.054;2024-03-08T06:00:07;24.00;58.70
61386;DHT22;47256;18.904;-99.054;2024-03-08T06:02:39;24.00;58.40
61386;DHT22;47256;18.904;-99.054;2024-03-08T06:05:12;24.10;57.30
61386;DHT22;47256;18.904;-99.054;2024-03-08T06:07:39;24.10;57.00
61386;DHT22;47256;18.904;-99.054;2024-03-08T06:10:12;24.10;57.10
61386;DHT22;47256;18.904;-99.054;2024-03-08T06:12:40;24.00;57.10
61386;DHT22;47256;18.904;-99.054;2024-03-08T06:15:11;24.00;57.10
61386;DHT22;47256;18.904;-99.054;2024-03-08T06:17:42;24.00;57.30
61386;DHT22;47256;18.904;-99.054;2024-03-08T06:20:11;24.00;58.10
61386;DHT22;47256;18.904;-99.054;2024-03-08T06:22:42;24.00;58.50
61386;DHT22;47256;18.904;-99.054;2024-03-08T06:25:12;23.90;58.60
61386;DHT22;47256;18.904;-99.054;2024-03-08T06:27:42;23.80;60.10
61386;DHT22;47256;18.904;-99.054;2024-03-08T06:30:13;23.80;60.10
61386;DHT22;47256;18.904;-99.054;2024-03-08T06:32:55;23.70;61.00
61386;DHT22;47256;18.904;-99.054;2024-03-08T06:35:22;23.50;62.50
61386;DHT22;47256;18.904;-99.054;2024-03-08T06:37:49;23.30;63.50
61386;DHT22;47256;18.904;-99.054;2024-03-08T06:40:17;23.10;63.30
61386;DHT22;47256;18.904;-99.054;2024-03-08T06:42:44;23.10;62.20
61386;DHT22;47256;18.904;-99.054;2024-03-08T06:45:15;23.20;61.70
61386;DHT22;47256;18.904;-99.054;2024-03-08T06:47:48;23.30;61.40
61386;DHT22;47256;18.904;-99.054;2024-03-08T06:50:19;23.30;61.90
61386;DHT22;47256;18.904;-99.054;2024-03-08T06:52:52;23.30;62.40
61386;DHT22;47256;18.904;-99.054;2024-03-08T06:55:20;23.40;62.60
61386;DHT22;47256;18.904;-99.054;2024-03-08T06:57:49;23.30;62.80
61386;DHT22;47256;18.904;-99.054;2024-03-08T07:00:17;23.20;63.90
61386;DHT22;47256;18.904;-99.054;2024-03-08T07:02:56;23.10;62.50
61386;DHT22;47256;18.904;-99.054;2024-03-08T07:05:28;23.10;62.80
61386;DHT22;47256;18.904;-99.054;2024-03-08T07:07:55;23.00;64.00
61386;DHT22;47256;18.904;-99.054;2024-03-08T07:10:23;22.90;64.70
61386;DHT22;47256;18.904;-99.054;2024-03-08T07:12:57;22.80;65.30
61386;DHT22;47256;18.904;-99.054;2024-03-08T07:15:24;22.80;64.10
61386;DHT22;47256;18.904;-99.054;2024-03-08T07:17:52;22.80;65.70
61386;DHT22;47256;18.904;-99.054;2024-03-08T07:20:25;22.50;66.40
61386;DHT22;47256;18.904;-99.054;2024-03-08T07:22:56;22.40;65.70
61386;DHT22;47256;18.904;-99.054;2024-03-08T07:25:23;22.40;65.50
61386;DHT22;47256;18.904;-99.054;2024-03-08T07:27:52;22.40;65.80
61386;DHT22;47256;18.904;-99.054;2024-03-08T07:30:24;22.40;66.10
61386;DHT22;47256;18.904;-99.054;2024-03-08T07:33:23;22.20;66.70
61386;DHT22;47256;18.904;-99.054;2024-03-08T07:35:52;22.20;66.60
61386;DHT22;47256;18.904;-99.054;2024-03-08T07:38:34;22.10;65.40
61386;DHT22;47256;18.904;-99.054;2024-03-08T07:41:03;22.00;66.20
61386;DHT22;47256;18.904;-99.054;2024-03-08T07:43:33;21.80;67.30
61386;DHT22;47256;18.904;-99.054;2024-03-08T07:46:00;21.70;65.90
61386;DHT22;47256;18.904;-99.054;2024-03-08T07:48:34;21.70;66.10
61386;DHT22;47256;18.904;-99.054;2024-03-08T07:51:04;21.90;65.40
61386;DHT22;47256;18.904;-99.054;2024-03-08T07:53:37;22.00;65.20
61386;DHT22;47256;18.904;-99.054;2024-03-08T07:56:08;21.90;65.00
61386;DHT22;47256;18.904;-99.054;2024-03-08T07:58:42;21.70;66.80
61386;DHT22;47256;18.904;-99.054;2024-03-08T08:01:22;21.50;67.10
61386;DHT22;47256;18.904;-99.054;2024-03-08T08:03:53;21.50;67.40
61386;DHT22;47256;18.904;-99.054;2024-03-08T08:06:22;21.60;66.20
61386;DHT22;47256;18.904;-99.054;2024-03-08T08:08:53;21.60;66.40
61386;DHT22;47256;18.904;-99.054;2024-03-08T08:11:29;21.40;66.60
61386;DHT22;47256;18.904;-99.054;2024-03-08T08:13:57;21.30;65.60
61386;DHT22;47256;18.904;-99.054;2024-03-08T08:16:26;21.20;66.00
61386;DHT22;47256;18.904;-99.054;2024-03-08T08:18:57;21.20;65.20
61386;DHT22;47256;18.904;-99.054;2024-03-08T08:21:28;21.20;65.10
61386;DHT22;47256;18.904;-99.054;2024-03-08T08:24:13;21.20;65.00
61386;DHT22;47256;18.904;-99.054;2024-03-08T08:26:44;21.10;65.10
61386;DHT22;47256;18.904;-99.054;2024-03-08T08:29:12;21.10;64.40
61386;DHT22;47256;18.904;-99.054;2024-03-08T08:31:43;21.10;65.00
61386;DHT22;47256;18.904;-99.054;2024-03-08T08:34:14;21.10;64.40
61386;DHT22;47256;18.904;-99.054;2024-03-08T08:36:49;21.00;63.60
61386;DHT22;47256;18.904;-99.054;2024-03-08T08:39:27;20.90;64.70
61386;DHT22;47256;18.904;-99.054;2024-03-08T08:41:55;20.90;63.40
61386;DHT22;47256;18.904;-99.054;2024-03-08T08:44:23;21.00;62.50
61386;DHT22;47256;18.904;-99.054;2024-03-08T08:46:51;21.10;63.00
61386;DHT22;47256;18.904;-99.054;2024-03-08T08:49:18;21.20;63.20
61386;DHT22;47256;18.904;-99.054;2024-03-08T08:51:53;21.20;63.00
61386;DHT22;47256;18.904;-99.054;2024-03-08T08:54:20;21.10;63.30
61386;DHT22;47256;18.904;-99.054;2024-03-08T08:56:49;21.10;63.30
61386;DHT22;47256;18.904;-99.054;2024-03-08T08:59:16;21.00;63.10
61386;DHT22;47256;18.904;-99.054;2024-03-08T09:01:56;21.00;62.20
61386;DHT22;47256;18.904;-99.054;2024-03-08T09:04:26;20.90;63.50
61386;DHT22;47256;18.904;-99.054;2024-03-08T09:07:03;20.90;62.50
61386;DHT22;47256;18.904;-99.054;2024-03-08T09:09:33;21.00;62.10
61386;DHT22;47256;18.904;-99.054;2024-03-08T09:12:04;20.90;61.10
61386;DHT22;47256;18.904;-99.054;2024-03-08T09:14:32;20.90;61.50
61386;DHT22;47256;18.904;-99.054;2024-03-08T09:17:07;21.00;62.20
61386;DHT22;47256;18.904;-99.054;2024-03-08T09:19:40;20.80;65.60
61386;DHT22;47256;18.904;-99.054;2024-03-08T09:22:13;20.70;63.90
61386;DHT22;47256;18.904;-99.054;2024-03-08T09:24:40;20.70;64.60
61386;DHT22;47256;18.904;-99.054;2024-03-08T09:27:11;20.70;65.00
61386;DHT22;47256;18.904;-99.054;2024-03-08T09:29:39;20.50;65.60
61386;DHT22;47256;18.904;-99.054;2024-03-08T09:32:09;20.40;65.80
61386;DHT22;47256;18.904;-99.054;2024-03-08T09:34:39;20.50;65.30
61386;DHT22;47256;18.904;-99.054;2024-03-08T09:37:07;20.50;65.00
61386;DHT22;47256;18.904;-99.054;2024-03-08T09:39:39;20.60;64.60
61386;DHT22;47256;18.904;-99.054;2024-03-08T09:42:06;20.40;66.10
61386;DHT22;47256;18.904;-99.054;2024-03-08T09:44:37;20.50;65.70
61386;DHT22;47256;18.904;-99.054;2024-03-08T09:47:07;20.50;65.60
61386;DHT22;47256;18.904;-99.054;2024-03-08T09:49:39;20.50;65.20
61386;DHT22;47256;18.904;-99.054;2024-03-08T09:52:10;20.50;66.00
61386;DHT22;47256;18.904;-99.054;2024-03-08T09:54:39;20.40;67.00
61386;DHT22;47256;18.904;-99.054;2024-03-08T09:57:11;20.30;67.50
61386;DHT22;47256;18.904;-99.054;2024-03-08T09:59:39;20.20;68.70
61386;DHT22;47256;18.904;-99.054;2024-03-08T10:02:16;20.20;68.70
61386;DHT22;47256;18.904;-99.054;2024-03-08T10:04:48;20.20;68.50
61386;DHT22;47256;18.904;-99.054;2024-03-08T10:07:21;20.20;68.20
61386;DHT22;47256;18.904;-99.054;2024-03-08T10:09:51;20.00;68.20
61386;DHT22;47256;18.904;-99.054;2024-03-08T10:12:21;20.00;68.00
61386;DHT22;47256;18.904;-99.054;2024-03-08T10:14:49;19.90;68.30
61386;DHT22;47256;18.904;-99.054;2024-03-08T10:17:17;19.80;70.40
61386;DHT22;47256;18.904;-99.054;2024-03-08T10:19:52;19.80;69.00
61386;DHT22;47256;18.904;-99.054;2024-03-08T10:22:19;19.90;67.90
61386;DHT22;47256;18.904;-99.054;2024-03-08T10:24:47;19.90;68.10
61386;DHT22;47256;18.904;-99.054;2024-03-08T10:27:17;19.60;68.50
61386;DHT22;47256;18.904;-99.054;2024-03-08T10:29:51;19.70;67.80
61386;DHT22;47256;18.904;-99.054;2024-03-08T10:32:19;19.70;67.00
61386;DHT22;47256;18.904;-99.054;2024-03-08T10:34:47;19.50;67.50
61386;DHT22;47256;18.904;-99.054;2024-03-08T10:37:25;19.60;67.20
61386;DHT22;47256;18.904;-99.054;2024-03-08T10:40:05;19.60;66.10
61386;DHT22;47256;18.904;-99.054;2024-03-08T10:42:54;19.60;65.10
61386;DHT22;47256;18.904;-99.054;2024-03-08T10:45:35;19.50;66.80
61386;DHT22;47256;18.904;-99.054;2024-03-08T10:48:26;19.50;65.10
61386;DHT22;47256;18.904;-99.054;2024-03-08T10:50:56;19.50;64.90
61386;DHT22;47256;18.904;-99.054;2024-03-08T10:53:27;19.50;64.80
61386;DHT22;47256;18.904;-99.054;2024-03-08T10:55:57;19.50;64.70
61386;DHT22;47256;18.904;-99.054;2024-03-08T10:58:26;19.50;65.10
61386;DHT22;47256;18.904;-99.054;2024-03-08T11:00:55;19.40;65.20
61386;DHT22;47256;18.904;-99.054;2024-03-08T11:06:16;19.30;66.10
61386;DHT22;47256;18.904;-99.054;2024-03-08T11:08:50;19.30;66.10
61386;DHT22;47256;18.904;-99.054;2024-03-08T11:11:34;19.40;66.20
61386;DHT22;47256;18.904;-99.054;2024-03-08T11:14:43;19.30;66.40
61386;DHT22;47256;18.904;-99.054;2024-03-08T11:17:20;19.20;68.20
61386;DHT22;47256;18.904;-99.054;2024-03-08T11:19:51;19.10;67.00
61386;DHT22;47256;18.904;-99.054;2024-03-08T11:22:27;19.10;67.10
61386;DHT22;47256;18.904;-99.054;2024-03-08T11:25:05;19.10;67.00
61386;DHT22;47256;18.904;-99.054;2024-03-08T11:27:36;19.10;67.80
61386;DHT22;47256;18.904;-99.054;2024-03-08T11:30:11;19.10;68.20
61386;DHT22;47256;18.904;-99.054;2024-03-08T11:32:38;19.20;68.60
61386;DHT22;47256;18.904;-99.054;2024-03-08T11:35:22;19.10;68.80
61386;DHT22;47256;18.904;-99.054;2024-03-08T11:37:53;19.10;68.80
61386;DHT22;47256;18.904;-99.054;2024-03-08T11:40:22;19.10;68.70
61386;DHT22;47256;18.904;-99.054;2024-03-08T11:42:50;18.90;70.30
61386;DHT22;47256;18.904;-99.054;2024-03-08T11:45:28;18.90;69.90
61386;DHT22;47256;18.904;-99.054;2024-03-08T11:47:55;18.70;69.90
61386;DHT22;47256;18.904;-99.054;2024-03-08T11:50:23;18.70;69.40
61386;DHT22;47256;18.904;-99.054;2024-03-08T11:52:50;18.60;69.90
61386;DHT22;47256;18.904;-99.054;2024-03-08T11:55:18;18.70;69.70
61386;DHT22;47256;18.904;-99.054;2024-03-08T11:57:46;18.70;69.70
61386;DHT22;47256;18.904;-99.054;2024-03-08T12:00:19;18.80;69.50
61386;DHT22;47256;18.904;-99.054;2024-03-08T12:03:03;18.80;69.60
61386;DHT22;47256;18.904;-99.054;2024-03-08T12:05:31;18.70;71.00
61386;DHT22;47256;18.904;-99.054;2024-03-08T12:08:04;18.80;70.80
61386;DHT22;47256;18.904;-99.054;2024-03-08T12:10:40;18.80;70.80
61386;DHT22;47256;18.904;-99.054;2024-03-08T12:13:12;18.80;71.30
61386;DHT22;47256;18.904;-99.054;2024-03-08T12:15:41;18.50;71.50
61386;DHT22;47256;18.904;-99.054;2024-03-08T12:18:13;18.40;71.20
61386;DHT22;47256;18.904;-99.054;2024-03-08T12:20:44;18.40;71.00
61386;DHT22;47256;18.904;-99.054;2024-03-08T12:23:20;18.40;70.40
61386;DHT22;47256;18.904;-99.054;2024-03-08T12:25:47;18.30;71.10
61386;DHT22;47256;18.904;-99.054;2024-03-08T12:28:19;18.20;71.30
61386;DHT22;47256;18.904;-99.054;2024-03-08T12:30:50;18.20;71.00
61386;DHT22;47256;18.904;-99.054;2024-03-08T12:33:23;17.90;71.00
61386;DHT22;47256;18.904;-99.054;2024-03-08T12:35:56;17.90;71.20
61386;DHT22;47256;18.904;-99.054;2024-03-08T12:38:30;18.00;71.10
61386;DHT22;47256;18.904;-99.054;2024-03-08T12:41:02;18.00;70.50
61386;DHT22;47256;18.904;-99.054;2024-03-08T12:43:35;18.10;70.60
61386;DHT22;47256;18.904;-99.054;2024-03-08T12:46:06;18.00;71.20
61386;DHT22;47256;18.904;-99.054;2024-03-08T12:48:35;18.00;72.00
61386;DHT22;47256;18.904;-99.054;2024-03-08T12:51:16;18.00;71.20
61386;DHT22;47256;18.904;-99.054;2024-03-08T12:53:45;18.00;71.30
61386;DHT22;47256;18.904;-99.054;2024-03-08T12:56:34;18.00;71.10
61386;DHT22;47256;18.904;-99.054;2024-03-08T12:59:02;18.00;71.40
61386;DHT22;47256;18.904;-99.054;2024-03-08T13:01:32;18.10;70.60
61386;DHT22;47256;18.904;-99.054;2024-03-08T13:04:02;18.10;70.10
61386;DHT22;47256;18.904;-99.054;2024-03-08T13:06:30;17.80;69.70
61386;DHT22;47256;18.904;-99.054;2024-03-08T13:09:00;17.80;71.10
61386;DHT22;47256;18.904;-99.054;2024-03-08T13:11:33;17.80;70.90
61386;DHT22;47256;18.904;-99.054;2024-03-08T13:14:15;17.90;70.70
61386;DHT22;47256;18.904;-99.054;2024-03-08T13:16:43;17.70;72.00
61386;DHT22;47256;18.904;-99.054;2024-03-08T13:19:14;17.60;73.10
61386;DHT22;47256;18.904;-99.054;2024-03-08T13:21:48;17.70;72.80
61386;DHT22;47256;18.904;-99.054;2024-03-08T13:24:21;17.80;71.70
61386;DHT22;47256;18.904;-99.054;2024-03-08T13:26:53;18.00;71.10
61386;DHT22;47256;18.904;-99.054;2024-03-08T13:29:25;18.10;71.30
61386;DHT22;47256;18.904;-99.054;2024-03-08T13:31:54;18.20;72.10
61386;DHT22;47256;18.904;-99.054;2024-03-08T13:34:29;18.40;72.00
61386;DHT22;47256;18.904;-99.054;2024-03-08T13:37:28;18.50;71.50
61386;DHT22;47256;18.904;-99.054;2024-03-08T13:40:07;18.70;71.40
61386;DHT22;47256;18.904;-99.054;2024-03-08T13:42:38;18.90;71.10
61386;DHT22;47256;18.904;-99.054;2024-03-08T13:45:12;18.90;70.60
61386;DHT22;47256;18.904;-99.054;2024-03-08T13:47:53;19.00;69.60
61386;DHT22;47256;18.904;-99.054;2024-03-08T13:50:21;19.00;69.10
61386;DHT22;47256;18.904;-99.054;2024-03-08T13:52:51;19.00;69.50
61386;DHT22;47256;18.904;-99.054;2024-03-08T13:55:21;19.10;68.30
61386;DHT22;47256;18.904;-99.054;2024-03-08T13:57:49;19.20;68.20
61386;DHT22;47256;18.904;-99.054;2024-03-08T14:00:29;19.40;67.80
61386;DHT22;47256;18.904;-99.054;2024-03-08T14:03:05;19.50;68.20
61386;DHT22;47256;18.904;-99.054;2024-03-08T14:05:33;19.70;68.30
61386;DHT22;47256;18.904;-99.054;2024-03-08T14:08:09;19.90;68.40
61386;DHT22;47256;18.904;-99.054;2024-03-08T14:10:47;20.00;68.90
61386;DHT22;47256;18.904;-99.054;2024-03-08T14:13:20;20.20;68.70
61386;DHT22;47256;18.904;-99.054;2024-03-08T14:15:53;20.40;69.10
61386;DHT22;47256;18.904;-99.054;2024-03-08T14:18:26;20.50;68.60
61386;DHT22;47256;18.904;-99.054;2024-03-08T14:20:56;20.70;68.00
61386;DHT22;47256;18.904;-99.054;2024-03-08T14:23:28;20.90;67.90
61386;DHT22;47256;18.904;-99.054;2024-03-08T14:25:57;21.00;64.80
61386;DHT22;47256;18.904;-99.054;2024-03-08T14:28:35;21.10;63.60
61386;DHT22;47256;18.904;-99.054;2024-03-08T14:31:03;21.30;61.80
61386;DHT22;47256;18.904;-99.054;2024-03-08T14:33:32;21.40;59.80
61386;DHT22;47256;18.904;-99.054;2024-03-08T14:36:03;21.60;59.90
61386;DHT22;47256;18.904;-99.054;2024-03-08T14:38:38;21.80;60.10
61386;DHT22;47256;18.904;-99.054;2024-03-08T14:41:05;22.00;58.90
61386;DHT22;47256;18.904;-99.054;2024-03-08T14:43:37;22.10;60.80
61386;DHT22;47256;18.904;-99.054;2024-03-08T14:46:05;22.30;59.90
61386;DHT22;47256;18.904;-99.054;2024-03-08T14:48:33;22.40;57.60
61386;DHT22;47256;18.904;-99.054;2024-03-08T14:51:07;22.50;59.10
61386;DHT22;47256;18.904;-99.054;2024-03-08T14:53:41;22.60;60.80
61386;DHT22;47256;18.904;-99.054;2024-03-08T14:56:09;22.80;59.00
61386;DHT22;47256;18.904;-99.054;2024-03-08T14:58:38;22.90;58.60
61386;DHT22;47256;18.904;-99.054;2024-03-08T15:01:06;23.00;57.80
61386;DHT22;47256;18.904;-99.054;2024-03-08T15:03:36;23.20;57.00
61386;DHT22;47256;18.904;-99.054;2024-03-08T15:06:08;23.30;58.10
61386;DHT22;47256;18.904;-99.054;2024-03-08T15:08:40;23.40;58.20
61386;DHT22;47256;18.904;-99.054;2024-03-08T15:11:07;23.60;58.40
61386;DHT22;47256;18.904;-99.054;2024-03-08T15:13:35;23.80;58.30
61386;DHT22;47256;18.904;-99.054;2024-03-08T15:16:16;23.90;57.80
61386;DHT22;47256;18.904;-99.054;2024-03-08T15:18:45;24.10;57.30
61386;DHT22;47256;18.904;-99.054;2024-03-08T15:21:20;24.30;56.10
61386;DHT22;47256;18.904;-99.054;2024-03-08T15:23:52;24.50;54.40
61386;DHT22;47256;18.904;-99.054;2024-03-08T15:26:27;24.60;53.50
61386;DHT22;47256;18.904;-99.054;2024-03-08T15:28:58;24.70;54.50
61386;DHT22;47256;18.904;-99.054;2024-03-08T15:31:27;25.00;53.40